PWSweather.com
Personal Weather Stations
Station Observations
IBAVARIA50
Munich, PlieningDE 85652

MunichPlieningDE 85652

Lat: 48.19916153, Lon: 11.79794312

Elevation: 504

Station Type: Davis Vantage Pro2

http://wetterstation-pliening.info

High Low Average
Temperature 59.1°F15.1°C 42.3°F5.7°C 49.6°F9.8°C
Dew Point 45.0°F7.2°C 34.8°F1.6°C 40.2°F4.6°C
Winds 11.0 mph 17.7 kmh Calm Calm 2.0 mph SSE3.2 kmh SSE
Wind Gusts 15.0 mph24.1 kmh -- 4.0 mph6.4 kmh
Humidity 89% 43% 72%
Pressure 30.36 in1028.1 mb 30.28 in1025.4 mb -
Precipitation 0.00 in0.0 mm - -
Hour Temp Dew Point Humidity Winds Wind Gusts Pressure Precip Precip Rate Daily Precip Total
12:00 AM 48.2°F9.0°C 44.5°F6.9°C 87% 3.0 mph SSW4.8 kmh SSW 3.0 mph4.8 kmh 30.31 in1026.4 mb 0.00 in0.0 mm 0.00 in0.0 mm 0.00 in0.0 mm
12:05 AM 48.2°F9.0°C 44.5°F6.9°C 87% 1.0 mph SSW1.6 kmh SSW 3.0 mph4.8 kmh 30.31 in1026.4 mb 0.00 in0.0 mm 0.00 in0.0 mm 0.00 in0.0 mm
12:10 AM 48.2°F9.0°C 44.5°F6.9°C 87% 1.0 mph SSW1.6 kmh SSW 4.0 mph6.4 kmh 30.31 in1026.4 mb 0.00 in0.0 mm 0.00 in0.0 mm 0.00 in0.0 mm
12:15 AM 48.2°F9.0°C 44.5°F6.9°C 87% Calm Calm 2.0 mph3.2 kmh 30.31 in1026.4 mb 0.00 in0.0 mm 0.00 in0.0 mm 0.00 in0.0 mm
12:20 AM 48.3°F9.1°C 44.6°F7.0°C 87% Calm Calm 2.0 mph3.2 kmh 30.31 in1026.4 mb 0.00 in0.0 mm 0.00 in0.0 mm 0.00 in0.0 mm
12:25 AM 48.3°F9.1°C 44.6°F7.0°C 87% Calm Calm 1.0 mph1.6 kmh 30.31 in1026.4 mb 0.00 in0.0 mm 0.00 in0.0 mm 0.00 in0.0 mm
12:30 AM 48.4°F9.1°C 44.7°F7.1°C 87% Calm Calm 1.0 mph1.6 kmh 30.31 in1026.4 mb 0.00 in0.0 mm 0.00 in0.0 mm 0.00 in0.0 mm
12:35 AM 48.4°F9.1°C 44.7°F7.1°C 87% Calm Calm -- 30.31 in1026.4 mb 0.00 in0.0 mm 0.00 in0.0 mm 0.00 in0.0 mm
12:40 AM 48.4°F9.1°C 44.7°F7.1°C 87% Calm Calm -- 30.31 in1026.4 mb 0.00 in0.0 mm 0.00 in0.0 mm 0.00 in0.0 mm
12:45 AM 48.4°F9.1°C 44.7°F7.1°C 87% Calm Calm -- 30.30 in1026.1 mb 0.00 in0.0 mm 0.00 in0.0 mm 0.00 in0.0 mm
12:50 AM 48.5°F9.2°C 44.8°F7.1°C 87% Calm Calm -- 30.30 in1026.1 mb 0.00 in0.0 mm 0.00 in0.0 mm 0.00 in0.0 mm
12:55 AM 48.5°F9.2°C 44.8°F7.1°C 87% Calm Calm -- 30.30 in1026.1 mb 0.00 in0.0 mm 0.00 in0.0 mm 0.00 in0.0 mm
01:00 AM 48.5°F9.2°C 44.8°F7.1°C 87% Calm Calm -- 30.31 in1026.4 mb 0.00 in0.0 mm 0.00 in0.0 mm 0.00 in0.0 mm
01:05 AM 48.5°F9.2°C 44.8°F7.1°C 87% Calm Calm -- 30.31 in1026.4 mb 0.00 in0.0 mm 0.00 in0.0 mm 0.00 in0.0 mm
01:10 AM 48.5°F9.2°C 44.8°F7.1°C 87% Calm Calm -- 30.31 in1026.4 mb 0.00 in0.0 mm 0.00 in0.0 mm 0.00 in0.0 mm
01:15 AM 48.7°F9.3°C 45.0°F7.2°C 87% Calm Calm -- 30.31 in1026.4 mb 0.00 in0.0 mm 0.00 in0.0 mm 0.00 in0.0 mm
01:20 AM 48.7°F9.3°C 45.0°F7.2°C 87% Calm Calm -- 30.31 in1026.4 mb 0.00 in0.0 mm 0.00 in0.0 mm 0.00 in0.0 mm
01:25 AM 48.7°F9.3°C 45.0°F7.2°C 87% Calm Calm -- 30.31 in1026.4 mb 0.00 in0.0 mm 0.00 in0.0 mm 0.00 in0.0 mm
01:30 AM 48.7°F9.3°C 45.0°F7.2°C 87% Calm Calm -- 30.30 in1026.1 mb 0.00 in0.0 mm 0.00 in0.0 mm 0.00 in0.0 mm
01:35 AM 48.5°F9.2°C 44.8°F7.1°C 87% Calm Calm -- 30.30 in1026.1 mb 0.00 in0.0 mm 0.00 in0.0 mm 0.00 in0.0 mm
01:40 AM 48.5°F9.2°C 44.8°F7.1°C 87% Calm Calm -- 30.30 in1026.1 mb 0.00 in0.0 mm 0.00 in0.0 mm 0.00 in0.0 mm
01:45 AM 48.4°F9.1°C 44.7°F7.1°C 87% Calm Calm -- 30.30 in1026.1 mb 0.00 in0.0 mm 0.00 in0.0 mm 0.00 in0.0 mm
01:50 AM 48.3°F9.1°C 44.6°F7.0°C 87% Calm Calm -- 30.30 in1026.1 mb 0.00 in0.0 mm 0.00 in0.0 mm 0.00 in0.0 mm
01:55 AM 48.3°F9.1°C 44.6°F7.0°C 87% Calm Calm -- 30.30 in1026.1 mb 0.00 in0.0 mm 0.00 in0.0 mm 0.00 in0.0 mm
02:00 AM 48.2°F9.0°C 44.5°F6.9°C 87% Calm Calm -- 30.30 in1026.1 mb 0.00 in0.0 mm 0.00 in0.0 mm 0.00 in0.0 mm
02:05 AM 48.0°F8.9°C 44.6°F7.0°C 88% Calm Calm -- 30.30 in1026.1 mb 0.00 in0.0 mm 0.00 in0.0 mm 0.00 in0.0 mm
02:10 AM 48.1°F8.9°C 44.7°F7.1°C 88% Calm Calm -- 30.30 in1026.1 mb 0.00 in0.0 mm 0.00 in0.0 mm 0.00 in0.0 mm
02:15 AM 48.3°F9.1°C 44.6°F7.0°C 87% Calm Calm -- 30.30 in1026.1 mb 0.00 in0.0 mm 0.00 in0.0 mm 0.00 in0.0 mm
02:20 AM 48.3°F9.1°C 44.6°F7.0°C 87% Calm Calm -- 30.30 in1026.1 mb 0.00 in0.0 mm 0.00 in0.0 mm 0.00 in0.0 mm
02:25 AM 48.3°F9.1°C 44.6°F7.0°C 87% Calm Calm -- 30.30 in1026.1 mb 0.00 in0.0 mm 0.00 in0.0 mm 0.00 in0.0 mm
02:30 AM 48.4°F9.1°C 44.7°F7.1°C 87% Calm Calm -- 30.30 in1026.1 mb 0.00 in0.0 mm 0.00 in0.0 mm 0.00 in0.0 mm
02:35 AM 48.5°F9.2°C 44.8°F7.1°C 87% Calm Calm -- 30.30 in1026.1 mb 0.00 in0.0 mm 0.00 in0.0 mm 0.00 in0.0 mm
02:40 AM 48.4°F9.1°C 44.4°F6.9°C 86% Calm Calm -- 30.30 in1026.1 mb 0.00 in0.0 mm 0.00 in0.0 mm 0.00 in0.0 mm
02:45 AM 48.3°F9.1°C 44.6°F7.0°C 87% Calm Calm -- 30.30 in1026.1 mb 0.00 in0.0 mm 0.00 in0.0 mm 0.00 in0.0 mm
02:50 AM 48.2°F9.0°C 44.5°F6.9°C 87% Calm Calm -- 30.30 in1026.1 mb 0.00 in0.0 mm 0.00 in0.0 mm 0.00 in0.0 mm
02:55 AM 48.0°F8.9°C 44.3°F6.8°C 87% Calm Calm -- 30.30 in1026.1 mb 0.00 in0.0 mm 0.00 in0.0 mm 0.00 in0.0 mm
03:00 AM 48.0°F8.9°C 44.3°F6.8°C 87% Calm Calm -- 30.29 in1025.7 mb 0.00 in0.0 mm 0.00 in0.0 mm 0.00 in0.0 mm
03:05 AM 47.9°F8.8°C 44.2°F6.8°C 87% Calm Calm -- 30.30 in1026.1 mb 0.00 in0.0 mm 0.00 in0.0 mm 0.00 in0.0 mm
03:10 AM 47.9°F8.8°C 44.2°F6.8°C 87% Calm Calm -- 30.30 in1026.1 mb 0.00 in0.0 mm 0.00 in0.0 mm 0.00 in0.0 mm
03:15 AM 48.0°F8.9°C 44.3°F6.8°C 87% Calm Calm -- 30.29 in1025.7 mb 0.00 in0.0 mm 0.00 in0.0 mm 0.00 in0.0 mm
03:20 AM 48.0°F8.9°C 44.3°F6.8°C 87% Calm Calm -- 30.30 in1026.1 mb 0.00 in0.0 mm 0.00 in0.0 mm 0.00 in0.0 mm
03:25 AM 47.9°F8.8°C 44.2°F6.8°C 87% Calm Calm -- 30.29 in1025.7 mb 0.00 in0.0 mm 0.00 in0.0 mm 0.00 in0.0 mm
03:30 AM 47.8°F8.8°C 44.1°F6.7°C 87% Calm Calm -- 30.29 in1025.7 mb 0.00 in0.0 mm 0.00 in0.0 mm 0.00 in0.0 mm
03:35 AM 47.7°F8.7°C 44.3°F6.8°C 88% Calm Calm -- 30.30 in1026.1 mb 0.00 in0.0 mm 0.00 in0.0 mm 0.00 in0.0 mm
03:40 AM 47.6°F8.7°C 44.2°F6.8°C 88% Calm Calm -- 30.30 in1026.1 mb 0.00 in0.0 mm 0.00 in0.0 mm 0.00 in0.0 mm
03:45 AM 47.4°F8.6°C 44.0°F6.7°C 88% 2.0 mph N3.2 kmh N 3.0 mph4.8 kmh 30.30 in1026.1 mb 0.00 in0.0 mm 0.00 in0.0 mm 0.00 in0.0 mm
03:50 AM 47.3°F8.5°C 43.9°F6.6°C 88% 1.0 mph N1.6 kmh N 4.0 mph6.4 kmh 30.30 in1026.1 mb 0.00 in0.0 mm 0.00 in0.0 mm 0.00 in0.0 mm
03:55 AM 47.2°F8.4°C 44.1°F6.7°C 89% Calm Calm 2.0 mph3.2 kmh 30.30 in1026.1 mb 0.00 in0.0 mm 0.00 in0.0 mm 0.00 in0.0 mm
04:00 AM 47.3°F8.5°C 44.2°F6.8°C 89% Calm Calm -- 30.30 in1026.1 mb 0.00 in0.0 mm 0.00 in0.0 mm 0.00 in0.0 mm
04:05 AM 47.5°F8.6°C 44.4°F6.9°C 89% Calm Calm -- 30.30 in1026.1 mb 0.00 in0.0 mm 0.00 in0.0 mm 0.00 in0.0 mm
04:10 AM 47.6°F8.7°C 44.5°F6.9°C 89% Calm Calm -- 30.30 in1026.1 mb 0.00 in0.0 mm 0.00 in0.0 mm 0.00 in0.0 mm
04:15 AM 47.8°F8.8°C 44.4°F6.9°C 88% Calm Calm -- 30.30 in1026.1 mb 0.00 in0.0 mm 0.00 in0.0 mm 0.00 in0.0 mm
04:20 AM 47.8°F8.8°C 44.4°F6.9°C 88% Calm Calm -- 30.31 in1026.4 mb 0.00 in0.0 mm 0.00 in0.0 mm 0.00 in0.0 mm
04:25 AM 47.9°F8.8°C 44.2°F6.8°C 87% Calm Calm 1.0 mph1.6 kmh 30.31 in1026.4 mb 0.00 in0.0 mm 0.00 in0.0 mm 0.00 in0.0 mm
04:30 AM 47.6°F8.7°C 43.9°F6.6°C 87% 2.0 mph N3.2 kmh N 2.0 mph3.2 kmh 30.31 in1026.4 mb 0.00 in0.0 mm 0.00 in0.0 mm 0.00 in0.0 mm
04:35 AM 47.2°F8.4°C 43.8°F6.6°C 88% 1.0 mph N1.6 kmh N 2.0 mph3.2 kmh 30.31 in1026.4 mb 0.00 in0.0 mm 0.00 in0.0 mm 0.00 in0.0 mm
04:40 AM 47.0°F8.3°C 43.6°F6.4°C 88% 2.0 mph N3.2 kmh N 2.0 mph3.2 kmh 30.31 in1026.4 mb 0.00 in0.0 mm 0.00 in0.0 mm 0.00 in0.0 mm
04:45 AM 46.9°F8.3°C 43.5°F6.4°C 88% Calm Calm 2.0 mph3.2 kmh 30.31 in1026.4 mb 0.00 in0.0 mm 0.00 in0.0 mm 0.00 in0.0 mm
04:50 AM 46.9°F8.3°C 43.5°F6.4°C 88% Calm Calm 1.0 mph1.6 kmh 30.31 in1026.4 mb 0.00 in0.0 mm 0.00 in0.0 mm 0.00 in0.0 mm
04:55 AM 46.9°F8.3°C 43.8°F6.6°C 89% Calm Calm -- 30.32 in1026.8 mb 0.00 in0.0 mm 0.00 in0.0 mm 0.00 in0.0 mm
05:00 AM 46.9°F8.3°C 43.5°F6.4°C 88% Calm Calm -- 30.31 in1026.4 mb 0.00 in0.0 mm 0.00 in0.0 mm 0.00 in0.0 mm
05:05 AM 47.0°F8.3°C 43.6°F6.4°C 88% Calm Calm -- 30.32 in1026.8 mb 0.00 in0.0 mm 0.00 in0.0 mm 0.00 in0.0 mm
05:10 AM 47.2°F8.4°C 43.8°F6.6°C 88% Calm Calm -- 30.32 in1026.8 mb 0.00 in0.0 mm 0.00 in0.0 mm 0.00 in0.0 mm
05:15 AM 47.3°F8.5°C 43.9°F6.6°C 88% Calm Calm -- 30.32 in1026.8 mb 0.00 in0.0 mm 0.00 in0.0 mm 0.00 in0.0 mm
05:20 AM 47.4°F8.6°C 44.0°F6.7°C 88% Calm Calm -- 30.32 in1026.8 mb 0.00 in0.0 mm 0.00 in0.0 mm 0.00 in0.0 mm
05:25 AM 47.5°F8.6°C 44.1°F6.7°C 88% Calm Calm -- 30.32 in1026.8 mb 0.00 in0.0 mm 0.00 in0.0 mm 0.00 in0.0 mm
05:30 AM 47.4°F8.6°C 43.7°F6.5°C 87% Calm Calm 1.0 mph1.6 kmh 30.32 in1026.8 mb 0.00 in0.0 mm 0.00 in0.0 mm 0.00 in0.0 mm
05:35 AM 47.3°F8.5°C 43.6°F6.4°C 87% Calm Calm -- 30.32 in1026.8 mb 0.00 in0.0 mm 0.00 in0.0 mm 0.00 in0.0 mm
05:40 AM 47.2°F8.4°C 43.5°F6.4°C 87% Calm Calm -- 30.32 in1026.8 mb 0.00 in0.0 mm 0.00 in0.0 mm 0.00 in0.0 mm
05:45 AM 47.2°F8.4°C 43.8°F6.6°C 88% Calm Calm -- 30.32 in1026.8 mb 0.00 in0.0 mm 0.00 in0.0 mm 0.00 in0.0 mm
05:50 AM 47.2°F8.4°C 43.5°F6.4°C 87% Calm Calm -- 30.32 in1026.8 mb 0.00 in0.0 mm 0.00 in0.0 mm 0.00 in0.0 mm
05:55 AM 47.2°F8.4°C 43.5°F6.4°C 87% Calm Calm -- 30.32 in1026.8 mb 0.00 in0.0 mm 0.00 in0.0 mm 0.00 in0.0 mm
06:00 AM 47.2°F8.4°C 43.5°F6.4°C 87% Calm Calm -- 30.31 in1026.4 mb 0.00 in0.0 mm 0.00 in0.0 mm 0.00 in0.0 mm
06:05 AM 47.2°F8.4°C 43.5°F6.4°C 87% Calm Calm -- 30.32 in1026.8 mb 0.00 in0.0 mm 0.00 in0.0 mm 0.00 in0.0 mm
06:10 AM 47.2°F8.4°C 43.5°F6.4°C 87% Calm Calm -- 30.32 in1026.8 mb 0.00 in0.0 mm 0.00 in0.0 mm 0.00 in0.0 mm
06:15 AM 47.1°F8.4°C 43.4°F6.3°C 87% Calm Calm -- 30.32 in1026.8 mb 0.00 in0.0 mm 0.00 in0.0 mm 0.00 in0.0 mm
06:20 AM 46.9°F8.3°C 43.2°F6.2°C 87% Calm Calm -- 30.32 in1026.8 mb 0.00 in0.0 mm 0.00 in0.0 mm 0.00 in0.0 mm
06:25 AM 46.9°F8.3°C 43.5°F6.4°C 88% Calm Calm -- 30.32 in1026.8 mb 0.00 in0.0 mm 0.00 in0.0 mm 0.00 in0.0 mm
06:30 AM 46.9°F8.3°C 43.2°F6.2°C 87% Calm Calm -- 30.32 in1026.8 mb 0.00 in0.0 mm 0.00 in0.0 mm 0.00 in0.0 mm
06:35 AM 46.9°F8.3°C 43.2°F6.2°C 87% Calm Calm -- 30.32 in1026.8 mb 0.00 in0.0 mm 0.00 in0.0 mm 0.00 in0.0 mm
06:40 AM 46.9°F8.3°C 43.2°F6.2°C 87% Calm Calm -- 30.32 in1026.8 mb 0.00 in0.0 mm 0.00 in0.0 mm 0.00 in0.0 mm
06:45 AM 46.9°F8.3°C 43.2°F6.2°C 87% Calm Calm -- 30.32 in1026.8 mb 0.00 in0.0 mm 0.00 in0.0 mm 0.00 in0.0 mm
06:50 AM 46.9°F8.3°C 43.2°F6.2°C 87% Calm Calm -- 30.32 in1026.8 mb 0.00 in0.0 mm 0.00 in0.0 mm 0.00 in0.0 mm
06:55 AM 46.8°F8.2°C 43.1°F6.2°C 87% Calm Calm -- 30.32 in1026.8 mb 0.00 in0.0 mm 0.00 in0.0 mm 0.00 in0.0 mm
07:00 AM 46.5°F8.1°C 43.1°F6.2°C 88% Calm Calm -- 30.32 in1026.8 mb 0.00 in0.0 mm 0.00 in0.0 mm 0.00 in0.0 mm
07:05 AM 46.4°F8.0°C 42.7°F5.9°C 87% Calm Calm -- 30.33 in1027.1 mb 0.00 in0.0 mm 0.00 in0.0 mm 0.00 in0.0 mm
07:10 AM 46.3°F7.9°C 42.9°F6.1°C 88% Calm Calm -- 30.33 in1027.1 mb 0.00 in0.0 mm 0.00 in0.0 mm 0.00 in0.0 mm
07:15 AM 46.2°F7.9°C 42.8°F6.0°C 88% Calm Calm -- 30.33 in1027.1 mb 0.00 in0.0 mm 0.00 in0.0 mm 0.00 in0.0 mm
07:20 AM 46.4°F8.0°C 43.3°F6.3°C 89% Calm Calm -- 30.33 in1027.1 mb 0.00 in0.0 mm 0.00 in0.0 mm 0.00 in0.0 mm
07:25 AM 46.4°F8.0°C 43.3°F6.3°C 89% Calm Calm -- 30.33 in1027.1 mb 0.00 in0.0 mm 0.00 in0.0 mm 0.00 in0.0 mm
07:30 AM 46.6°F8.1°C 43.5°F6.4°C 89% Calm Calm -- 30.33 in1027.1 mb 0.00 in0.0 mm 0.00 in0.0 mm 0.00 in0.0 mm
07:35 AM 46.7°F8.2°C 43.3°F6.3°C 88% Calm Calm -- 30.33 in1027.1 mb 0.00 in0.0 mm 0.00 in0.0 mm 0.00 in0.0 mm
07:40 AM 46.8°F8.2°C 43.4°F6.3°C 88% Calm Calm -- 30.33 in1027.1 mb 0.00 in0.0 mm 0.00 in0.0 mm 0.00 in0.0 mm
07:45 AM 46.8°F8.2°C 43.1°F6.2°C 87% Calm Calm -- 30.34 in1027.4 mb 0.00 in0.0 mm 0.00 in0.0 mm 0.00 in0.0 mm
07:50 AM 46.7°F8.2°C 43.0°F6.1°C 87% Calm Calm -- 30.34 in1027.4 mb 0.00 in0.0 mm 0.00 in0.0 mm 0.00 in0.0 mm
07:55 AM 46.8°F8.2°C 43.1°F6.2°C 87% Calm Calm -- 30.34 in1027.4 mb 0.00 in0.0 mm 0.00 in0.0 mm 0.00 in0.0 mm
08:00 AM 46.9°F8.3°C 42.9°F6.1°C 86% Calm Calm -- 30.34 in1027.4 mb 0.00 in0.0 mm 0.00 in0.0 mm 0.00 in0.0 mm
08:05 AM 47.0°F8.3°C 43.0°F6.1°C 86% Calm Calm -- 30.34 in1027.4 mb 0.00 in0.0 mm 0.00 in0.0 mm 0.00 in0.0 mm
08:10 AM 47.0°F8.3°C 42.7°F5.9°C 85% Calm Calm -- 30.34 in1027.4 mb 0.00 in0.0 mm 0.00 in0.0 mm 0.00 in0.0 mm
08:15 AM 47.2°F8.4°C 42.9°F6.1°C 85% Calm Calm -- 30.34 in1027.4 mb 0.00 in0.0 mm 0.00 in0.0 mm 0.00 in0.0 mm
08:20 AM 47.4°F8.6°C 43.1°F6.2°C 85% 1.0 mph NNE1.6 kmh NNE 4.0 mph6.4 kmh 30.35 in1027.8 mb 0.00 in0.0 mm 0.00 in0.0 mm 0.00 in0.0 mm
08:25 AM 47.5°F8.6°C 42.9°F6.1°C 84% 4.0 mph NE6.4 kmh NE 6.0 mph9.7 kmh 30.34 in1027.4 mb 0.00 in0.0 mm 0.00 in0.0 mm 0.00 in0.0 mm
08:30 AM 47.6°F8.7°C 43.0°F6.1°C 84% 3.0 mph N4.8 kmh N 5.0 mph8.0 kmh 30.34 in1027.4 mb 0.00 in0.0 mm 0.00 in0.0 mm 0.00 in0.0 mm
08:35 AM 47.6°F8.7°C 43.0°F6.1°C 84% 2.0 mph NE3.2 kmh NE 7.0 mph11.3 kmh 30.35 in1027.8 mb 0.00 in0.0 mm 0.00 in0.0 mm 0.00 in0.0 mm
08:40 AM 47.8°F8.8°C 43.2°F6.2°C 84% 3.0 mph NE4.8 kmh NE 6.0 mph9.7 kmh 30.35 in1027.8 mb 0.00 in0.0 mm 0.00 in0.0 mm 0.00 in0.0 mm
08:45 AM 48.0°F8.9°C 43.0°F6.1°C 83% 3.0 mph NE4.8 kmh NE 9.0 mph14.5 kmh 30.35 in1027.8 mb 0.00 in0.0 mm 0.00 in0.0 mm 0.00 in0.0 mm
08:50 AM 48.1°F8.9°C 43.1°F6.2°C 83% 5.0 mph ENE8.0 kmh ENE 6.0 mph9.7 kmh 30.35 in1027.8 mb 0.00 in0.0 mm 0.00 in0.0 mm 0.00 in0.0 mm
08:55 AM 48.5°F9.2°C 43.2°F6.2°C 82% 5.0 mph NE8.0 kmh NE 6.0 mph9.7 kmh 30.35 in1027.8 mb 0.00 in0.0 mm 0.00 in0.0 mm 0.00 in0.0 mm
09:00 AM 48.7°F9.3°C 43.1°F6.2°C 81% 7.0 mph NE11.3 kmh NE 8.0 mph12.9 kmh 30.35 in1027.8 mb 0.00 in0.0 mm 0.00 in0.0 mm 0.00 in0.0 mm
09:05 AM 48.9°F9.4°C 43.3°F6.3°C 81% 4.0 mph NE6.4 kmh NE 7.0 mph11.3 kmh 30.35 in1027.8 mb 0.00 in0.0 mm 0.00 in0.0 mm 0.00 in0.0 mm
09:10 AM 49.1°F9.5°C 43.1°F6.2°C 80% 4.0 mph E6.4 kmh E 7.0 mph11.3 kmh 30.36 in1028.1 mb 0.00 in0.0 mm 0.00 in0.0 mm 0.00 in0.0 mm
09:15 AM 49.2°F9.6°C 42.9°F6.1°C 79% 4.0 mph NE6.4 kmh NE 9.0 mph14.5 kmh 30.36 in1028.1 mb 0.00 in0.0 mm 0.00 in0.0 mm 0.00 in0.0 mm
09:20 AM 49.5°F9.7°C 43.2°F6.2°C 79% 3.0 mph E4.8 kmh E 7.0 mph11.3 kmh 30.36 in1028.1 mb 0.00 in0.0 mm 0.00 in0.0 mm 0.00 in0.0 mm
09:25 AM 49.9°F9.9°C 43.3°F6.3°C 78% 4.0 mph E6.4 kmh E 8.0 mph12.9 kmh 30.36 in1028.1 mb 0.00 in0.0 mm 0.00 in0.0 mm 0.00 in0.0 mm
09:30 AM 50.2°F10.1°C 43.6°F6.4°C 78% 2.0 mph ENE3.2 kmh ENE 7.0 mph11.3 kmh 30.36 in1028.1 mb 0.00 in0.0 mm 0.00 in0.0 mm 0.00 in0.0 mm
09:35 AM 50.3°F10.2°C 43.0°F6.1°C 76% 2.0 mph E3.2 kmh E 10.0 mph16.1 kmh 30.36 in1028.1 mb 0.00 in0.0 mm 0.00 in0.0 mm 0.00 in0.0 mm
09:40 AM 50.5°F10.3°C 43.2°F6.2°C 76% 2.0 mph NE3.2 kmh NE 10.0 mph16.1 kmh 30.35 in1027.8 mb 0.00 in0.0 mm 0.00 in0.0 mm 0.00 in0.0 mm
09:45 AM 50.9°F10.5°C 43.2°F6.2°C 75% 4.0 mph ENE6.4 kmh ENE 7.0 mph11.3 kmh 30.35 in1027.8 mb 0.00 in0.0 mm 0.00 in0.0 mm 0.00 in0.0 mm
09:50 AM 51.0°F10.6°C 43.0°F6.1°C 74% 3.0 mph NE4.8 kmh NE 9.0 mph14.5 kmh 30.35 in1027.8 mb 0.00 in0.0 mm 0.00 in0.0 mm 0.00 in0.0 mm
09:55 AM 51.3°F10.7°C 42.9°F6.1°C 73% 5.0 mph NE8.0 kmh NE 10.0 mph16.1 kmh 30.35 in1027.8 mb 0.00 in0.0 mm 0.00 in0.0 mm 0.00 in0.0 mm
10:00 AM 51.5°F10.8°C 43.1°F6.2°C 73% 2.0 mph E3.2 kmh E 7.0 mph11.3 kmh 30.35 in1027.8 mb 0.00 in0.0 mm 0.00 in0.0 mm 0.00 in0.0 mm
10:05 AM 51.7°F10.9°C 42.9°F6.1°C 72% 5.0 mph ENE8.0 kmh ENE 9.0 mph14.5 kmh 30.35 in1027.8 mb 0.00 in0.0 mm 0.00 in0.0 mm 0.00 in0.0 mm
10:10 AM 51.7°F10.9°C 42.9°F6.1°C 72% 5.0 mph E8.0 kmh E 11.0 mph17.7 kmh 30.35 in1027.8 mb 0.00 in0.0 mm 0.00 in0.0 mm 0.00 in0.0 mm
10:15 AM 51.9°F11.1°C 42.7°F5.9°C 71% 5.0 mph ESE8.0 kmh ESE 7.0 mph11.3 kmh 30.35 in1027.8 mb 0.00 in0.0 mm 0.00 in0.0 mm 0.00 in0.0 mm
10:20 AM 52.1°F11.2°C 42.9°F6.1°C 71% 3.0 mph E4.8 kmh E 5.0 mph8.0 kmh 30.35 in1027.8 mb 0.00 in0.0 mm 0.00 in0.0 mm 0.00 in0.0 mm
10:25 AM 52.3°F11.3°C 42.8°F6.0°C 70% 6.0 mph ESE9.7 kmh ESE 6.0 mph9.7 kmh 30.35 in1027.8 mb 0.00 in0.0 mm 0.00 in0.0 mm 0.00 in0.0 mm
10:30 AM 52.5°F11.4°C 43.0°F6.1°C 70% 6.0 mph E9.7 kmh E 7.0 mph11.3 kmh 30.35 in1027.8 mb 0.00 in0.0 mm 0.00 in0.0 mm 0.00 in0.0 mm
10:35 AM 52.8°F11.6°C 42.9°F6.1°C 69% 3.0 mph ENE4.8 kmh ENE 7.0 mph11.3 kmh 30.35 in1027.8 mb 0.00 in0.0 mm 0.00 in0.0 mm 0.00 in0.0 mm
10:40 AM 53.3°F11.8°C 42.2°F5.7°C 66% 4.0 mph E6.4 kmh E 12.0 mph19.3 kmh 30.34 in1027.4 mb 0.00 in0.0 mm 0.00 in0.0 mm 0.00 in0.0 mm
10:45 AM 53.7°F12.1°C 42.2°F5.7°C 65% 2.0 mph E3.2 kmh E 6.0 mph9.7 kmh 30.34 in1027.4 mb 0.00 in0.0 mm 0.00 in0.0 mm 0.00 in0.0 mm
10:50 AM 54.0°F12.2°C 42.0°F5.6°C 64% 5.0 mph E8.0 kmh E 9.0 mph14.5 kmh 30.34 in1027.4 mb 0.00 in0.0 mm 0.00 in0.0 mm 0.00 in0.0 mm
10:55 AM 54.1°F12.3°C 41.7°F5.4°C 63% 1.0 mph ESE1.6 kmh ESE 9.0 mph14.5 kmh 30.34 in1027.4 mb 0.00 in0.0 mm 0.00 in0.0 mm 0.00 in0.0 mm
11:00 AM 54.5°F12.5°C 41.3°F5.2°C 61% 4.0 mph ESE6.4 kmh ESE 9.0 mph14.5 kmh 30.33 in1027.1 mb 0.00 in0.0 mm 0.00 in0.0 mm 0.00 in0.0 mm
11:05 AM 54.5°F12.5°C 41.7°F5.4°C 62% 3.0 mph E4.8 kmh E 10.0 mph16.1 kmh 30.34 in1027.4 mb 0.00 in0.0 mm 0.00 in0.0 mm 0.00 in0.0 mm
11:10 AM 54.7°F12.6°C 40.6°F4.8°C 59% 5.0 mph NE8.0 kmh NE 11.0 mph17.7 kmh 30.33 in1027.1 mb 0.00 in0.0 mm 0.00 in0.0 mm 0.00 in0.0 mm
11:15 AM 54.8°F12.7°C 40.3°F4.6°C 58% 4.0 mph NE6.4 kmh NE 9.0 mph14.5 kmh 30.33 in1027.1 mb 0.00 in0.0 mm 0.00 in0.0 mm 0.00 in0.0 mm
11:20 AM 55.0°F12.8°C 40.0°F4.4°C 57% 3.0 mph NE4.8 kmh NE 10.0 mph16.1 kmh 30.33 in1027.1 mb 0.00 in0.0 mm 0.00 in0.0 mm 0.00 in0.0 mm
11:25 AM 55.0°F12.8°C 37.6°F3.1°C 52% 1.0 mph E1.6 kmh E 7.0 mph11.3 kmh 30.33 in1027.1 mb 0.00 in0.0 mm 0.00 in0.0 mm 0.00 in0.0 mm
11:30 AM 55.5°F13.1°C 37.1°F2.8°C 50% 3.0 mph ESE4.8 kmh ESE 10.0 mph16.1 kmh 30.32 in1026.8 mb 0.00 in0.0 mm 0.00 in0.0 mm 0.00 in0.0 mm
11:35 AM 55.7°F13.2°C 36.8°F2.7°C 49% 2.0 mph NE3.2 kmh NE 11.0 mph17.7 kmh 30.32 in1026.8 mb 0.00 in0.0 mm 0.00 in0.0 mm 0.00 in0.0 mm
11:40 AM 55.6°F13.1°C 36.2°F2.3°C 48% 2.0 mph E3.2 kmh E 10.0 mph16.1 kmh 30.32 in1026.8 mb 0.00 in0.0 mm 0.00 in0.0 mm 0.00 in0.0 mm
11:45 AM 56.2°F13.4°C 35.1°F1.7°C 45% 2.0 mph NE3.2 kmh NE 13.0 mph20.9 kmh 30.32 in1026.8 mb 0.00 in0.0 mm 0.00 in0.0 mm 0.00 in0.0 mm
11:50 AM 56.6°F13.7°C 36.0°F2.2°C 46% 4.0 mph E6.4 kmh E 9.0 mph14.5 kmh 30.32 in1026.8 mb 0.00 in0.0 mm 0.00 in0.0 mm 0.00 in0.0 mm
11:55 AM 56.6°F13.7°C 36.0°F2.2°C 46% 9.0 mph NE14.5 kmh NE 11.0 mph17.7 kmh 30.32 in1026.8 mb 0.00 in0.0 mm 0.00 in0.0 mm 0.00 in0.0 mm
12:00 PM 55.9°F13.3°C 35.4°F1.9°C 46% 7.0 mph NE11.3 kmh NE 10.0 mph16.1 kmh 30.32 in1026.8 mb 0.00 in0.0 mm 0.00 in0.0 mm 0.00 in0.0 mm
12:05 PM 56.1°F13.4°C 36.6°F2.6°C 48% 7.0 mph E11.3 kmh E 10.0 mph16.1 kmh 30.32 in1026.8 mb 0.00 in0.0 mm 0.00 in0.0 mm 0.00 in0.0 mm
12:10 PM 56.4°F13.6°C 35.3°F1.8°C 45% 3.0 mph E4.8 kmh E 10.0 mph16.1 kmh 30.31 in1026.4 mb 0.00 in0.0 mm 0.00 in0.0 mm 0.00 in0.0 mm
12:15 PM 56.8°F13.8°C 35.6°F2.0°C 45% 3.0 mph E4.8 kmh E 12.0 mph19.3 kmh 30.31 in1026.4 mb 0.00 in0.0 mm 0.00 in0.0 mm 0.00 in0.0 mm
12:20 PM 56.8°F13.8°C 35.6°F2.0°C 45% 6.0 mph ENE9.7 kmh ENE 13.0 mph20.9 kmh 30.31 in1026.4 mb 0.00 in0.0 mm 0.00 in0.0 mm 0.00 in0.0 mm
12:25 PM 56.9°F13.8°C 36.3°F2.4°C 46% 5.0 mph E8.0 kmh E 11.0 mph17.7 kmh 30.31 in1026.4 mb 0.00 in0.0 mm 0.00 in0.0 mm 0.00 in0.0 mm
12:30 PM 57.0°F13.9°C 35.8°F2.1°C 45% 4.0 mph ENE6.4 kmh ENE 15.0 mph24.1 kmh 30.31 in1026.4 mb 0.00 in0.0 mm 0.00 in0.0 mm 0.00 in0.0 mm
12:35 PM 57.1°F13.9°C 34.8°F1.6°C 43% 3.0 mph NE4.8 kmh NE 11.0 mph17.7 kmh 30.31 in1026.4 mb 0.00 in0.0 mm 0.00 in0.0 mm 0.00 in0.0 mm
12:40 PM 56.6°F13.7°C 35.5°F1.9°C 45% 4.0 mph N6.4 kmh N 8.0 mph12.9 kmh 30.31 in1026.4 mb 0.00 in0.0 mm 0.00 in0.0 mm 0.00 in0.0 mm
12:45 PM 57.3°F14.1°C 35.5°F1.9°C 44% 2.0 mph ENE3.2 kmh ENE 11.0 mph17.7 kmh 30.31 in1026.4 mb 0.00 in0.0 mm 0.00 in0.0 mm 0.00 in0.0 mm
12:50 PM 57.8°F14.3°C 36.5°F2.5°C 45% 2.0 mph NE3.2 kmh NE 13.0 mph20.9 kmh 30.31 in1026.4 mb 0.00 in0.0 mm 0.00 in0.0 mm 0.00 in0.0 mm
12:55 PM 57.6°F14.2°C 35.8°F2.1°C 44% 6.0 mph NE9.7 kmh NE 11.0 mph17.7 kmh 30.31 in1026.4 mb 0.00 in0.0 mm 0.00 in0.0 mm 0.00 in0.0 mm
01:00 PM 58.0°F14.4°C 37.3°F2.9°C 46% 7.0 mph ESE11.3 kmh ESE 11.0 mph17.7 kmh 30.31 in1026.4 mb 0.00 in0.0 mm 0.00 in0.0 mm 0.00 in0.0 mm
01:05 PM 58.3°F14.6°C 37.0°F2.8°C 45% 9.0 mph E14.5 kmh E 12.0 mph19.3 kmh 30.31 in1026.4 mb 0.00 in0.0 mm 0.00 in0.0 mm 0.00 in0.0 mm
01:10 PM 58.2°F14.6°C 36.9°F2.7°C 45% 7.0 mph NE11.3 kmh NE 12.0 mph19.3 kmh 30.31 in1026.4 mb 0.00 in0.0 mm 0.00 in0.0 mm 0.00 in0.0 mm
01:15 PM 58.1°F14.5°C 36.8°F2.7°C 45% 4.0 mph E6.4 kmh E 11.0 mph17.7 kmh 30.31 in1026.4 mb 0.00 in0.0 mm 0.00 in0.0 mm 0.00 in0.0 mm
01:20 PM 58.6°F14.8°C 36.7°F2.6°C 44% 5.0 mph SE8.0 kmh SE 10.0 mph16.1 kmh 30.30 in1026.1 mb 0.00 in0.0 mm 0.00 in0.0 mm 0.00 in0.0 mm
01:25 PM 58.8°F14.9°C 36.9°F2.7°C 44% 4.0 mph E6.4 kmh E 10.0 mph16.1 kmh 30.31 in1026.4 mb 0.00 in0.0 mm 0.00 in0.0 mm 0.00 in0.0 mm
01:30 PM 59.1°F15.1°C 36.6°F2.6°C 43% 6.0 mph ENE9.7 kmh ENE 9.0 mph14.5 kmh 30.30 in1026.1 mb 0.00 in0.0 mm 0.00 in0.0 mm 0.00 in0.0 mm
01:35 PM 58.4°F14.7°C 36.5°F2.5°C 44% 4.0 mph E6.4 kmh E 11.0 mph17.7 kmh 30.31 in1026.4 mb 0.00 in0.0 mm 0.00 in0.0 mm 0.00 in0.0 mm
01:40 PM 58.0°F14.4°C 37.3°F2.9°C 46% 5.0 mph NE8.0 kmh NE 10.0 mph16.1 kmh 30.31 in1026.4 mb 0.00 in0.0 mm 0.00 in0.0 mm 0.00 in0.0 mm
01:45 PM 58.0°F14.4°C 37.8°F3.2°C 47% 3.0 mph NE4.8 kmh NE 11.0 mph17.7 kmh 30.31 in1026.4 mb 0.00 in0.0 mm 0.00 in0.0 mm 0.00 in0.0 mm
01:50 PM 58.0°F14.4°C 38.4°F3.6°C 48% 9.0 mph NE14.5 kmh NE 10.0 mph16.1 kmh 30.31 in1026.4 mb 0.00 in0.0 mm 0.00 in0.0 mm 0.00 in0.0 mm
01:55 PM 57.0°F13.9°C 37.5°F3.1°C 48% 7.0 mph NE11.3 kmh NE 13.0 mph20.9 kmh 30.31 in1026.4 mb 0.00 in0.0 mm 0.00 in0.0 mm 0.00 in0.0 mm
02:00 PM 57.1°F13.9°C 38.1°F3.4°C 49% 6.0 mph ESE9.7 kmh ESE 11.0 mph17.7 kmh 30.31 in1026.4 mb 0.00 in0.0 mm 0.00 in0.0 mm 0.00 in0.0 mm
02:05 PM 57.8°F14.3°C 37.7°F3.2°C 47% 6.0 mph E9.7 kmh E 9.0 mph14.5 kmh 30.30 in1026.1 mb 0.00 in0.0 mm 0.00 in0.0 mm 0.00 in0.0 mm
02:10 PM 57.6°F14.2°C 38.0°F3.3°C 48% 7.0 mph E11.3 kmh E 10.0 mph16.1 kmh 30.31 in1026.4 mb 0.00 in0.0 mm 0.00 in0.0 mm 0.00 in0.0 mm
02:15 PM 56.7°F13.7°C 38.2°F3.4°C 50% 4.0 mph NE6.4 kmh NE 10.0 mph16.1 kmh 30.31 in1026.4 mb 0.00 in0.0 mm 0.00 in0.0 mm 0.00 in0.0 mm
02:20 PM 56.4°F13.6°C 37.9°F3.3°C 50% 5.0 mph E8.0 kmh E 9.0 mph14.5 kmh 30.31 in1026.4 mb 0.00 in0.0 mm 0.00 in0.0 mm 0.00 in0.0 mm
02:25 PM 57.0°F13.9°C 38.0°F3.3°C 49% 5.0 mph E8.0 kmh E 11.0 mph17.7 kmh 30.31 in1026.4 mb 0.00 in0.0 mm 0.00 in0.0 mm 0.00 in0.0 mm
02:30 PM 57.5°F14.2°C 37.4°F3.0°C 47% 10.0 mph E16.1 kmh E 10.0 mph16.1 kmh 30.30 in1026.1 mb 0.00 in0.0 mm 0.00 in0.0 mm 0.00 in0.0 mm
02:35 PM 57.3°F14.1°C 37.2°F2.9°C 47% 6.0 mph NE9.7 kmh NE 11.0 mph17.7 kmh 30.30 in1026.1 mb 0.00 in0.0 mm 0.00 in0.0 mm 0.00 in0.0 mm
02:40 PM 57.2°F14.0°C 37.6°F3.1°C 48% 3.0 mph ESE4.8 kmh ESE 7.0 mph11.3 kmh 30.30 in1026.1 mb 0.00 in0.0 mm 0.00 in0.0 mm 0.00 in0.0 mm
02:45 PM 57.7°F14.3°C 37.6°F3.1°C 47% 4.0 mph NNE6.4 kmh NNE 10.0 mph16.1 kmh 30.30 in1026.1 mb 0.00 in0.0 mm 0.00 in0.0 mm 0.00 in0.0 mm
02:50 PM 57.8°F14.3°C 37.7°F3.2°C 47% 2.0 mph E3.2 kmh E 9.0 mph14.5 kmh 30.30 in1026.1 mb 0.00 in0.0 mm 0.00 in0.0 mm 0.00 in0.0 mm
02:55 PM 58.3°F14.6°C 38.6°F3.7°C 48% 2.0 mph ENE3.2 kmh ENE 6.0 mph9.7 kmh 30.30 in1026.1 mb 0.00 in0.0 mm 0.00 in0.0 mm 0.00 in0.0 mm
03:00 PM 58.3°F14.6°C 38.6°F3.7°C 48% 7.0 mph ENE11.3 kmh ENE 11.0 mph17.7 kmh 30.30 in1026.1 mb 0.00 in0.0 mm 0.00 in0.0 mm 0.00 in0.0 mm
03:05 PM 57.5°F14.2°C 38.4°F3.6°C 49% 9.0 mph NE14.5 kmh NE 12.0 mph19.3 kmh 30.30 in1026.1 mb 0.00 in0.0 mm 0.00 in0.0 mm 0.00 in0.0 mm
03:10 PM 57.6°F14.2°C 38.5°F3.6°C 49% 4.0 mph E6.4 kmh E 10.0 mph16.1 kmh 30.30 in1026.1 mb 0.00 in0.0 mm 0.00 in0.0 mm 0.00 in0.0 mm
03:15 PM 57.4°F14.1°C 37.8°F3.2°C 48% 6.0 mph E9.7 kmh E 10.0 mph16.1 kmh 30.30 in1026.1 mb 0.00 in0.0 mm 0.00 in0.0 mm 0.00 in0.0 mm
03:20 PM 56.3°F13.5°C 37.3°F2.9°C 49% 11.0 mph ENE17.7 kmh ENE 12.0 mph19.3 kmh 30.30 in1026.1 mb 0.00 in0.0 mm 0.00 in0.0 mm 0.00 in0.0 mm
03:25 PM 56.0°F13.3°C 38.1°F3.4°C 51% 2.0 mph E3.2 kmh E 10.0 mph16.1 kmh 30.30 in1026.1 mb 0.00 in0.0 mm 0.00 in0.0 mm 0.00 in0.0 mm
03:30 PM 56.2°F13.4°C 37.8°F3.2°C 50% 2.0 mph E3.2 kmh E 10.0 mph16.1 kmh 30.30 in1026.1 mb 0.00 in0.0 mm 0.00 in0.0 mm 0.00 in0.0 mm
03:35 PM 56.2°F13.4°C 37.8°F3.2°C 50% 2.0 mph E3.2 kmh E 9.0 mph14.5 kmh 30.30 in1026.1 mb 0.00 in0.0 mm 0.00 in0.0 mm 0.00 in0.0 mm
03:40 PM 56.3°F13.5°C 37.3°F2.9°C 49% 5.0 mph ESE8.0 kmh ESE 10.0 mph16.1 kmh 30.30 in1026.1 mb 0.00 in0.0 mm 0.00 in0.0 mm 0.00 in0.0 mm
03:45 PM 56.2°F13.4°C 37.2°F2.9°C 49% 5.0 mph ESE8.0 kmh ESE 8.0 mph12.9 kmh 30.30 in1026.1 mb 0.00 in0.0 mm 0.00 in0.0 mm 0.00 in0.0 mm
03:50 PM 55.9°F13.3°C 37.5°F3.1°C 50% 3.0 mph SE4.8 kmh SE 7.0 mph11.3 kmh 30.30 in1026.1 mb 0.00 in0.0 mm 0.00 in0.0 mm 0.00 in0.0 mm
03:55 PM 55.9°F13.3°C 37.5°F3.1°C 50% 2.0 mph E3.2 kmh E 8.0 mph12.9 kmh 30.29 in1025.7 mb 0.00 in0.0 mm 0.00 in0.0 mm 0.00 in0.0 mm
04:00 PM 55.9°F13.3°C 38.0°F3.3°C 51% 4.0 mph E6.4 kmh E 5.0 mph8.0 kmh 30.29 in1025.7 mb 0.00 in0.0 mm 0.00 in0.0 mm 0.00 in0.0 mm
04:05 PM 55.9°F13.3°C 38.5°F3.6°C 52% 3.0 mph ESE4.8 kmh ESE 5.0 mph8.0 kmh 30.29 in1025.7 mb 0.00 in0.0 mm 0.00 in0.0 mm 0.00 in0.0 mm
04:10 PM 55.7°F13.2°C 38.3°F3.5°C 52% 3.0 mph E4.8 kmh E 6.0 mph9.7 kmh 30.29 in1025.7 mb 0.00 in0.0 mm 0.00 in0.0 mm 0.00 in0.0 mm
04:15 PM 55.5°F13.1°C 38.1°F3.4°C 52% 1.0 mph ESE1.6 kmh ESE 4.0 mph6.4 kmh 30.29 in1025.7 mb 0.00 in0.0 mm 0.00 in0.0 mm 0.00 in0.0 mm
04:20 PM 55.1°F12.8°C 37.7°F3.2°C 52% 2.0 mph ESE3.2 kmh ESE 4.0 mph6.4 kmh 30.29 in1025.7 mb 0.00 in0.0 mm 0.00 in0.0 mm 0.00 in0.0 mm
04:25 PM 54.7°F12.6°C 37.9°F3.3°C 53% 1.0 mph E1.6 kmh E 7.0 mph11.3 kmh 30.29 in1025.7 mb 0.00 in0.0 mm 0.00 in0.0 mm 0.00 in0.0 mm
04:30 PM 54.3°F12.4°C 38.4°F3.6°C 55% 1.0 mph E1.6 kmh E 5.0 mph8.0 kmh 30.29 in1025.7 mb 0.00 in0.0 mm 0.00 in0.0 mm 0.00 in0.0 mm
04:35 PM 53.9°F12.2°C 39.0°F3.9°C 57% 1.0 mph ESE1.6 kmh ESE 4.0 mph6.4 kmh 30.29 in1025.7 mb 0.00 in0.0 mm 0.00 in0.0 mm 0.00 in0.0 mm
04:40 PM 53.5°F11.9°C 39.0°F3.9°C 58% 3.0 mph ENE4.8 kmh ENE 5.0 mph8.0 kmh 30.29 in1025.7 mb 0.00 in0.0 mm 0.00 in0.0 mm 0.00 in0.0 mm
04:45 PM 53.2°F11.8°C 38.8°F3.8°C 58% 4.0 mph E6.4 kmh E 4.0 mph6.4 kmh 30.29 in1025.7 mb 0.00 in0.0 mm 0.00 in0.0 mm 0.00 in0.0 mm
04:50 PM 52.8°F11.6°C 38.4°F3.6°C 58% 1.0 mph E1.6 kmh E 4.0 mph6.4 kmh 30.29 in1025.7 mb 0.00 in0.0 mm 0.00 in0.0 mm 0.00 in0.0 mm
04:55 PM 52.6°F11.4°C 38.2°F3.4°C 58% 3.0 mph ENE4.8 kmh ENE 4.0 mph6.4 kmh 30.29 in1025.7 mb 0.00 in0.0 mm 0.00 in0.0 mm 0.00 in0.0 mm
05:00 PM 52.3°F11.3°C 38.8°F3.8°C 60% 1.0 mph ENE1.6 kmh ENE 3.0 mph4.8 kmh 30.29 in1025.7 mb 0.00 in0.0 mm 0.00 in0.0 mm 0.00 in0.0 mm
05:05 PM 52.2°F11.2°C 38.7°F3.7°C 60% 2.0 mph ENE3.2 kmh ENE 3.0 mph4.8 kmh 30.29 in1025.7 mb 0.00 in0.0 mm 0.00 in0.0 mm 0.00 in0.0 mm
05:10 PM 51.9°F11.1°C 38.4°F3.6°C 60% 2.0 mph E3.2 kmh E 3.0 mph4.8 kmh 30.29 in1025.7 mb 0.00 in0.0 mm 0.00 in0.0 mm 0.00 in0.0 mm
05:15 PM 51.6°F10.9°C 38.5°F3.6°C 61% 2.0 mph E3.2 kmh E 2.0 mph3.2 kmh 30.29 in1025.7 mb 0.00 in0.0 mm 0.00 in0.0 mm 0.00 in0.0 mm
05:20 PM 51.3°F10.7°C 38.3°F3.5°C 61% Calm Calm 2.0 mph3.2 kmh 30.30 in1026.1 mb 0.00 in0.0 mm 0.00 in0.0 mm 0.00 in0.0 mm
05:25 PM 51.2°F10.7°C 38.6°F3.7°C 62% Calm Calm -- 30.30 in1026.1 mb 0.00 in0.0 mm 0.00 in0.0 mm 0.00 in0.0 mm
05:30 PM 50.9°F10.5°C 38.3°F3.5°C 62% Calm Calm -- 30.30 in1026.1 mb 0.00 in0.0 mm 0.00 in0.0 mm 0.00 in0.0 mm
05:35 PM 50.7°F10.4°C 38.5°F3.6°C 63% Calm Calm -- 30.30 in1026.1 mb 0.00 in0.0 mm 0.00 in0.0 mm 0.00 in0.0 mm
05:40 PM 50.4°F10.2°C 38.6°F3.7°C 64% Calm Calm -- 30.30 in1026.1 mb 0.00 in0.0 mm 0.00 in0.0 mm 0.00 in0.0 mm
05:45 PM 50.3°F10.2°C 38.5°F3.6°C 64% Calm Calm -- 30.30 in1026.1 mb 0.00 in0.0 mm 0.00 in0.0 mm 0.00 in0.0 mm
05:50 PM 50.1°F10.1°C 38.4°F3.6°C 64% Calm Calm -- 30.31 in1026.4 mb 0.00 in0.0 mm 0.00 in0.0 mm 0.00 in0.0 mm
05:55 PM 49.7°F9.8°C 38.4°F3.6°C 65% Calm Calm -- 30.31 in1026.4 mb 0.00 in0.0 mm 0.00 in0.0 mm 0.00 in0.0 mm
06:00 PM 49.4°F9.7°C 38.1°F3.4°C 65% Calm Calm -- 30.31 in1026.4 mb 0.00 in0.0 mm 0.00 in0.0 mm 0.00 in0.0 mm
06:05 PM 49.2°F9.6°C 38.3°F3.5°C 66% Calm Calm -- 30.31 in1026.4 mb 0.00 in0.0 mm 0.00 in0.0 mm 0.00 in0.0 mm
06:10 PM 48.9°F9.4°C 38.0°F3.3°C 66% Calm Calm -- 30.31 in1026.4 mb 0.00 in0.0 mm 0.00 in0.0 mm 0.00 in0.0 mm
06:15 PM 48.7°F9.3°C 37.8°F3.2°C 66% 2.0 mph E3.2 kmh E 2.0 mph3.2 kmh 30.31 in1026.4 mb 0.00 in0.0 mm 0.00 in0.0 mm 0.00 in0.0 mm
06:20 PM 48.5°F9.2°C 37.6°F3.1°C 66% 2.0 mph E3.2 kmh E 4.0 mph6.4 kmh 30.31 in1026.4 mb 0.00 in0.0 mm 0.00 in0.0 mm 0.00 in0.0 mm
06:25 PM 48.4°F9.1°C 37.9°F3.3°C 67% 2.0 mph SE3.2 kmh SE 3.0 mph4.8 kmh 30.31 in1026.4 mb 0.00 in0.0 mm 0.00 in0.0 mm 0.00 in0.0 mm
06:30 PM 48.3°F9.1°C 37.8°F3.2°C 67% 2.0 mph E3.2 kmh E 4.0 mph6.4 kmh 30.31 in1026.4 mb 0.00 in0.0 mm 0.00 in0.0 mm 0.00 in0.0 mm
06:35 PM 48.2°F9.0°C 37.7°F3.2°C 67% 1.0 mph ESE1.6 kmh ESE 4.0 mph6.4 kmh 30.31 in1026.4 mb 0.00 in0.0 mm 0.00 in0.0 mm 0.00 in0.0 mm
06:40 PM 48.1°F8.9°C 37.6°F3.1°C 67% 1.0 mph E1.6 kmh E 4.0 mph6.4 kmh 30.31 in1026.4 mb 0.00 in0.0 mm 0.00 in0.0 mm 0.00 in0.0 mm
06:45 PM 48.0°F8.9°C 37.5°F3.1°C 67% 4.0 mph ESE6.4 kmh ESE 6.0 mph9.7 kmh 30.31 in1026.4 mb 0.00 in0.0 mm 0.00 in0.0 mm 0.00 in0.0 mm
06:50 PM 47.9°F8.8°C 37.4°F3.0°C 67% 2.0 mph E3.2 kmh E 5.0 mph8.0 kmh 30.31 in1026.4 mb 0.00 in0.0 mm 0.00 in0.0 mm 0.00 in0.0 mm
06:55 PM 47.9°F8.8°C 37.8°F3.2°C 68% 3.0 mph ESE4.8 kmh ESE 4.0 mph6.4 kmh 30.30 in1026.1 mb 0.00 in0.0 mm 0.00 in0.0 mm 0.00 in0.0 mm
07:00 PM 47.7°F8.7°C 37.6°F3.1°C 68% 2.0 mph ESE3.2 kmh ESE 5.0 mph8.0 kmh 30.31 in1026.4 mb 0.00 in0.0 mm 0.00 in0.0 mm 0.00 in0.0 mm
07:05 PM 47.5°F8.6°C 37.4°F3.0°C 68% 4.0 mph E6.4 kmh E 6.0 mph9.7 kmh 30.31 in1026.4 mb 0.00 in0.0 mm 0.00 in0.0 mm 0.00 in0.0 mm
07:10 PM 47.3°F8.5°C 37.2°F2.9°C 68% 5.0 mph E8.0 kmh E 7.0 mph11.3 kmh 30.31 in1026.4 mb 0.00 in0.0 mm 0.00 in0.0 mm 0.00 in0.0 mm
07:15 PM 47.2°F8.4°C 37.5°F3.1°C 69% 5.0 mph ESE8.0 kmh ESE 7.0 mph11.3 kmh 30.31 in1026.4 mb 0.00 in0.0 mm 0.00 in0.0 mm 0.00 in0.0 mm
07:20 PM 47.0°F8.3°C 37.3°F2.9°C 69% 4.0 mph E6.4 kmh E 6.0 mph9.7 kmh 30.31 in1026.4 mb 0.00 in0.0 mm 0.00 in0.0 mm 0.00 in0.0 mm
07:25 PM 46.9°F8.3°C 37.2°F2.9°C 69% 4.0 mph ESE6.4 kmh ESE 7.0 mph11.3 kmh 30.31 in1026.4 mb 0.00 in0.0 mm 0.00 in0.0 mm 0.00 in0.0 mm
07:30 PM 46.7°F8.2°C 37.4°F3.0°C 70% 3.0 mph ESE4.8 kmh ESE 9.0 mph14.5 kmh 30.31 in1026.4 mb 0.00 in0.0 mm 0.00 in0.0 mm 0.00 in0.0 mm
07:35 PM 46.4°F8.0°C 37.1°F2.8°C 70% 3.0 mph ESE4.8 kmh ESE 5.0 mph8.0 kmh 30.31 in1026.4 mb 0.00 in0.0 mm 0.00 in0.0 mm 0.00 in0.0 mm
07:40 PM 46.2°F7.9°C 37.3°F2.9°C 71% 5.0 mph E8.0 kmh E 5.0 mph8.0 kmh 30.31 in1026.4 mb 0.00 in0.0 mm 0.00 in0.0 mm 0.00 in0.0 mm
07:45 PM 45.9°F7.7°C 37.0°F2.8°C 71% 3.0 mph E4.8 kmh E 5.0 mph8.0 kmh 30.31 in1026.4 mb 0.00 in0.0 mm 0.00 in0.0 mm 0.00 in0.0 mm
07:50 PM 45.7°F7.6°C 37.1°F2.8°C 72% 2.0 mph ESE3.2 kmh ESE 5.0 mph8.0 kmh 30.32 in1026.8 mb 0.00 in0.0 mm 0.00 in0.0 mm 0.00 in0.0 mm
07:55 PM 45.5°F7.5°C 37.0°F2.8°C 72% 3.0 mph ESE4.8 kmh ESE 5.0 mph8.0 kmh 30.32 in1026.8 mb 0.00 in0.0 mm 0.00 in0.0 mm 0.00 in0.0 mm
08:00 PM 45.4°F7.4°C 36.9°F2.7°C 72% 4.0 mph ESE6.4 kmh ESE 5.0 mph8.0 kmh 30.32 in1026.8 mb 0.00 in0.0 mm 0.00 in0.0 mm 0.00 in0.0 mm
08:05 PM 45.3°F7.4°C 37.1°F2.8°C 73% 3.0 mph E4.8 kmh E 5.0 mph8.0 kmh 30.31 in1026.4 mb 0.00 in0.0 mm 0.00 in0.0 mm 0.00 in0.0 mm
08:10 PM 45.2°F7.3°C 37.0°F2.8°C 73% 1.0 mph SE1.6 kmh SE 5.0 mph8.0 kmh 30.31 in1026.4 mb 0.00 in0.0 mm 0.00 in0.0 mm 0.00 in0.0 mm
08:15 PM 45.1°F7.3°C 36.9°F2.7°C 73% 2.0 mph ESE3.2 kmh ESE 4.0 mph6.4 kmh 30.31 in1026.4 mb 0.00 in0.0 mm 0.00 in0.0 mm 0.00 in0.0 mm
08:20 PM 44.9°F7.2°C 36.7°F2.6°C 73% 4.0 mph ESE6.4 kmh ESE 5.0 mph8.0 kmh 30.31 in1026.4 mb 0.00 in0.0 mm 0.00 in0.0 mm 0.00 in0.0 mm
08:25 PM 44.8°F7.1°C 37.0°F2.8°C 74% 3.0 mph E4.8 kmh E 6.0 mph9.7 kmh 30.31 in1026.4 mb 0.00 in0.0 mm 0.00 in0.0 mm 0.00 in0.0 mm
08:30 PM 44.7°F7.1°C 36.9°F2.7°C 74% 3.0 mph E4.8 kmh E 6.0 mph9.7 kmh 30.31 in1026.4 mb 0.00 in0.0 mm 0.00 in0.0 mm 0.00 in0.0 mm
08:35 PM 44.6°F7.0°C 36.8°F2.7°C 74% 4.0 mph ESE6.4 kmh ESE 6.0 mph9.7 kmh 30.31 in1026.4 mb 0.00 in0.0 mm 0.00 in0.0 mm 0.00 in0.0 mm
08:40 PM 44.5°F6.9°C 36.7°F2.6°C 74% 3.0 mph E4.8 kmh E 7.0 mph11.3 kmh 30.31 in1026.4 mb 0.00 in0.0 mm 0.00 in0.0 mm 0.00 in0.0 mm
08:45 PM 44.5°F6.9°C 36.7°F2.6°C 74% 5.0 mph E8.0 kmh E 6.0 mph9.7 kmh 30.31 in1026.4 mb 0.00 in0.0 mm 0.00 in0.0 mm 0.00 in0.0 mm
08:50 PM 44.5°F6.9°C 36.7°F2.6°C 74% 3.0 mph E4.8 kmh E 6.0 mph9.7 kmh 30.31 in1026.4 mb 0.00 in0.0 mm 0.00 in0.0 mm 0.00 in0.0 mm
08:55 PM 44.4°F6.9°C 36.6°F2.6°C 74% 3.0 mph E4.8 kmh E 5.0 mph8.0 kmh 30.31 in1026.4 mb 0.00 in0.0 mm 0.00 in0.0 mm 0.00 in0.0 mm
09:00 PM 44.3°F6.8°C 36.5°F2.5°C 74% 4.0 mph E6.4 kmh E 4.0 mph6.4 kmh 30.31 in1026.4 mb 0.00 in0.0 mm 0.00 in0.0 mm 0.00 in0.0 mm
09:05 PM 44.2°F6.8°C 36.4°F2.4°C 74% 3.0 mph ESE4.8 kmh ESE 5.0 mph8.0 kmh 30.30 in1026.1 mb 0.00 in0.0 mm 0.00 in0.0 mm 0.00 in0.0 mm
09:10 PM 44.2°F6.8°C 36.4°F2.4°C 74% 4.0 mph ESE6.4 kmh ESE 6.0 mph9.7 kmh 30.30 in1026.1 mb 0.00 in0.0 mm 0.00 in0.0 mm 0.00 in0.0 mm
09:15 PM 44.3°F6.8°C 36.5°F2.5°C 74% 2.0 mph E3.2 kmh E 5.0 mph8.0 kmh 30.30 in1026.1 mb 0.00 in0.0 mm 0.00 in0.0 mm 0.00 in0.0 mm
09:20 PM 44.1°F6.7°C 36.3°F2.4°C 74% 3.0 mph E4.8 kmh E 5.0 mph8.0 kmh 30.30 in1026.1 mb 0.00 in0.0 mm 0.00 in0.0 mm 0.00 in0.0 mm
09:25 PM 44.0°F6.7°C 36.2°F2.3°C 74% 3.0 mph E4.8 kmh E 4.0 mph6.4 kmh 30.30 in1026.1 mb 0.00 in0.0 mm 0.00 in0.0 mm 0.00 in0.0 mm
09:30 PM 43.9°F6.6°C 36.4°F2.4°C 75% 5.0 mph E8.0 kmh E 5.0 mph8.0 kmh 30.30 in1026.1 mb 0.00 in0.0 mm 0.00 in0.0 mm 0.00 in0.0 mm
09:35 PM 43.9°F6.6°C 36.1°F2.3°C 74% 4.0 mph E6.4 kmh E 6.0 mph9.7 kmh 30.30 in1026.1 mb 0.00 in0.0 mm 0.00 in0.0 mm 0.00 in0.0 mm
09:40 PM 43.8°F6.6°C 36.0°F2.2°C 74% 4.0 mph E6.4 kmh E 6.0 mph9.7 kmh 30.30 in1026.1 mb 0.00 in0.0 mm 0.00 in0.0 mm 0.00 in0.0 mm
09:45 PM 43.8°F6.6°C 36.0°F2.2°C 74% 1.0 mph ESE1.6 kmh ESE 6.0 mph9.7 kmh 30.30 in1026.1 mb 0.00 in0.0 mm 0.00 in0.0 mm 0.00 in0.0 mm
09:50 PM 43.8°F6.6°C 36.4°F2.4°C 75% 1.0 mph ESE1.6 kmh ESE 4.0 mph6.4 kmh 30.30 in1026.1 mb 0.00 in0.0 mm 0.00 in0.0 mm 0.00 in0.0 mm
09:55 PM 43.8°F6.6°C 36.4°F2.4°C 75% 2.0 mph E3.2 kmh E 4.0 mph6.4 kmh 30.30 in1026.1 mb 0.00 in0.0 mm 0.00 in0.0 mm 0.00 in0.0 mm
10:00 PM 43.7°F6.5°C 36.3°F2.4°C 75% 2.0 mph SE3.2 kmh SE 4.0 mph6.4 kmh 30.30 in1026.1 mb 0.00 in0.0 mm 0.00 in0.0 mm 0.00 in0.0 mm
10:05 PM 43.7°F6.5°C 36.3°F2.4°C 75% 4.0 mph ESE6.4 kmh ESE 5.0 mph8.0 kmh 30.29 in1025.7 mb 0.00 in0.0 mm 0.00 in0.0 mm 0.00 in0.0 mm
10:10 PM 43.7°F6.5°C 36.3°F2.4°C 75% 1.0 mph SE1.6 kmh SE 5.0 mph8.0 kmh 30.29 in1025.7 mb 0.00 in0.0 mm 0.00 in0.0 mm 0.00 in0.0 mm
10:15 PM 43.6°F6.4°C 36.2°F2.3°C 75% 1.0 mph ESE1.6 kmh ESE 4.0 mph6.4 kmh 30.29 in1025.7 mb 0.00 in0.0 mm 0.00 in0.0 mm 0.00 in0.0 mm
10:20 PM 43.5°F6.4°C 36.4°F2.4°C 76% 3.0 mph SE4.8 kmh SE 4.0 mph6.4 kmh 30.29 in1025.7 mb 0.00 in0.0 mm 0.00 in0.0 mm 0.00 in0.0 mm
10:25 PM 43.4°F6.3°C 36.3°F2.4°C 76% 4.0 mph ESE6.4 kmh ESE 4.0 mph6.4 kmh 30.29 in1025.7 mb 0.00 in0.0 mm 0.00 in0.0 mm 0.00 in0.0 mm
10:30 PM 43.3°F6.3°C 36.2°F2.3°C 76% 1.0 mph ESE1.6 kmh ESE 4.0 mph6.4 kmh 30.29 in1025.7 mb 0.00 in0.0 mm 0.00 in0.0 mm 0.00 in0.0 mm
10:35 PM 43.2°F6.2°C 36.1°F2.3°C 76% 2.0 mph E3.2 kmh E 4.0 mph6.4 kmh 30.29 in1025.7 mb 0.00 in0.0 mm 0.00 in0.0 mm 0.00 in0.0 mm
10:40 PM 43.2°F6.2°C 36.1°F2.3°C 76% 1.0 mph ESE1.6 kmh ESE 4.0 mph6.4 kmh 30.29 in1025.7 mb 0.00 in0.0 mm 0.00 in0.0 mm 0.00 in0.0 mm
10:45 PM 43.2°F6.2°C 36.1°F2.3°C 76% 2.0 mph E3.2 kmh E 3.0 mph4.8 kmh 30.29 in1025.7 mb 0.00 in0.0 mm 0.00 in0.0 mm 0.00 in0.0 mm
10:50 PM 43.1°F6.2°C 36.0°F2.2°C 76% 3.0 mph E4.8 kmh E 3.0 mph4.8 kmh 30.29 in1025.7 mb 0.00 in0.0 mm 0.00 in0.0 mm 0.00 in0.0 mm
10:55 PM 42.9°F6.1°C 35.8°F2.1°C 76% Calm Calm 3.0 mph4.8 kmh 30.29 in1025.7 mb 0.00 in0.0 mm 0.00 in0.0 mm 0.00 in0.0 mm
11:00 PM 42.8°F6.0°C 35.7°F2.1°C 76% 1.0 mph E1.6 kmh E 2.0 mph3.2 kmh 30.29 in1025.7 mb 0.00 in0.0 mm 0.00 in0.0 mm 0.00 in0.0 mm
11:05 PM 42.6°F5.9°C 35.9°F2.2°C 77% Calm Calm 3.0 mph4.8 kmh 30.29 in1025.7 mb 0.00 in0.0 mm 0.00 in0.0 mm 0.00 in0.0 mm
11:10 PM 42.4°F5.8°C 35.7°F2.1°C 77% Calm Calm 2.0 mph3.2 kmh 30.29 in1025.7 mb 0.00 in0.0 mm 0.00 in0.0 mm 0.00 in0.0 mm
11:15 PM 42.4°F5.8°C 35.7°F2.1°C 77% 1.0 mph ESE1.6 kmh ESE 4.0 mph6.4 kmh 30.28 in1025.4 mb 0.00 in0.0 mm 0.00 in0.0 mm 0.00 in0.0 mm
11:20 PM 42.4°F5.8°C 36.0°F2.2°C 78% 1.0 mph E1.6 kmh E 3.0 mph4.8 kmh 30.28 in1025.4 mb 0.00 in0.0 mm 0.00 in0.0 mm 0.00 in0.0 mm
11:25 PM 42.4°F5.8°C 36.0°F2.2°C 78% 1.0 mph E1.6 kmh E 3.0 mph4.8 kmh 30.29 in1025.7 mb 0.00 in0.0 mm 0.00 in0.0 mm 0.00 in0.0 mm
11:30 PM 42.5°F5.8°C 35.8°F2.1°C 77% 1.0 mph ESE1.6 kmh ESE 3.0 mph4.8 kmh 30.29 in1025.7 mb 0.00 in0.0 mm 0.00 in0.0 mm 0.00 in0.0 mm
11:35 PM 42.6°F5.9°C 35.9°F2.2°C 77% Calm Calm 1.0 mph1.6 kmh 30.28 in1025.4 mb 0.00 in0.0 mm 0.00 in0.0 mm 0.00 in0.0 mm
11:40 PM 42.7°F5.9°C 36.0°F2.2°C 77% Calm Calm -- 30.28 in1025.4 mb 0.00 in0.0 mm 0.00 in0.0 mm 0.00 in0.0 mm
11:45 PM 42.5°F5.8°C 35.8°F2.1°C 77% 1.0 mph ESE1.6 kmh ESE 1.0 mph1.6 kmh 30.28 in1025.4 mb 0.00 in0.0 mm 0.00 in0.0 mm 0.00 in0.0 mm
11:50 PM 42.4°F5.8°C 35.7°F2.1°C 77% Calm Calm 2.0 mph3.2 kmh 30.28 in1025.4 mb 0.00 in0.0 mm 0.00 in0.0 mm 0.00 in0.0 mm
11:55 PM 42.3°F5.7°C 35.6°F2.0°C 77% Calm Calm 1.0 mph1.6 kmh 30.28 in1025.4 mb 0.00 in0.0 mm 0.00 in0.0 mm 0.00 in0.0 mm